sensor_id;sensor_type;location;lat;lon;timestamp;P1;durP1;ratioP1;P2;durP2;ratioP2
3333;SDS011;1679;50.392;8.008;2024-03-08T00:01:50;22.53;;;15.30;;
3333;SDS011;1679;50.392;8.008;2024-03-08T00:04:16;27.63;;;15.60;;
3333;SDS011;1679;50.392;8.008;2024-03-08T00:06:42;28.53;;;16.50;;
3333;SDS011;1679;50.392;8.008;2024-03-08T00:09:10;26.27;;;15.93;;
3333;SDS011;1679;50.392;8.008;2024-03-08T00:11:37;31.60;;;15.00;;
3333;SDS011;1679;50.392;8.008;2024-03-08T00:14:02;25.83;;;16.77;;
3333;SDS011;1679;50.392;8.008;2024-03-08T00:16:31;28.57;;;17.60;;
3333;SDS011;1679;50.392;8.008;2024-03-08T00:18:58;25.87;;;15.30;;
3333;SDS011;1679;50.392;8.008;2024-03-08T00:21:24;24.53;;;15.07;;
3333;SDS011;1679;50.392;8.008;2024-03-08T00:23:49;28.47;;;15.50;;
3333;SDS011;1679;50.392;8.008;2024-03-08T00:26:19;24.43;;;15.63;;
3333;SDS011;1679;50.392;8.008;2024-03-08T00:28:45;27.50;;;17.30;;
3333;SDS011;1679;50.392;8.008;2024-03-08T00:31:13;26.13;;;16.30;;
3333;SDS011;1679;50.392;8.008;2024-03-08T00:33:41;31.77;;;16.40;;
3333;SDS011;1679;50.392;8.008;2024-03-08T00:36:08;31.20;;;16.10;;
3333;SDS011;1679;50.392;8.008;2024-03-08T00:38:33;28.53;;;15.83;;
3333;SDS011;1679;50.392;8.008;2024-03-08T00:40:59;24.93;;;14.77;;
3333;SDS011;1679;50.392;8.008;2024-03-08T00:43:25;28.20;;;15.57;;
3333;SDS011;1679;50.392;8.008;2024-03-08T00:45:51;26.23;;;16.63;;
3333;SDS011;1679;50.392;8.008;2024-03-08T00:48:16;27.00;;;15.63;;
3333;SDS011;1679;50.392;8.008;2024-03-08T00:50:42;27.67;;;15.37;;
3333;SDS011;1679;50.392;8.008;2024-03-08T00:53:10;31.33;;;16.83;;
3333;SDS011;1679;50.392;8.008;2024-03-08T00:55:36;33.13;;;16.70;;
3333;SDS011;1679;50.392;8.008;2024-03-08T00:58:04;27.60;;;16.13;;
3333;SDS011;1679;50.392;8.008;2024-03-08T01:00:30;23.30;;;14.90;;
3333;SDS011;1679;50.392;8.008;2024-03-08T01:02:57;30.60;;;17.73;;
3333;SDS011;1679;50.392;8.008;2024-03-08T01:05:22;29.77;;;16.80;;
3333;SDS011;1679;50.392;8.008;2024-03-08T01:07:49;27.27;;;17.00;;
3333;SDS011;1679;50.392;8.008;2024-03-08T01:10:16;25.33;;;15.93;;
3333;SDS011;1679;50.392;8.008;2024-03-08T01:12:41;26.13;;;15.63;;
3333;SDS011;1679;50.392;8.008;2024-03-08T01:15:09;26.93;;;15.67;;
3333;SDS011;1679;50.392;8.008;2024-03-08T01:17:35;28.67;;;16.03;;
3333;SDS011;1679;50.392;8.008;2024-03-08T01:20:01;32.60;;;16.40;;
3333;SDS011;1679;50.392;8.008;2024-03-08T01:22:27;25.50;;;15.13;;
3333;SDS011;1679;50.392;8.008;2024-03-08T01:24:54;27.30;;;15.97;;
3333;SDS011;1679;50.392;8.008;2024-03-08T01:27:20;29.80;;;16.57;;
3333;SDS011;1679;50.392;8.008;2024-03-08T01:29:47;32.07;;;17.10;;
3333;SDS011;1679;50.392;8.008;2024-03-08T01:32:13;29.07;;;17.67;;
3333;SDS011;1679;50.392;8.008;2024-03-08T01:34:39;25.50;;;15.50;;
3333;SDS011;1679;50.392;8.008;2024-03-08T01:37:05;28.27;;;16.10;;
3333;SDS011;1679;50.392;8.008;2024-03-08T01:39:31;27.80;;;16.73;;
3333;SDS011;1679;50.392;8.008;2024-03-08T01:41:57;29.80;;;16.43;;
3333;SDS011;1679;50.392;8.008;2024-03-08T01:44:23;29.70;;;16.20;;
3333;SDS011;1679;50.392;8.008;2024-03-08T01:46:50;29.77;;;16.10;;
3333;SDS011;1679;50.392;8.008;2024-03-08T01:49:18;30.23;;;16.83;;
3333;SDS011;1679;50.392;8.008;2024-03-08T01:51:48;28.27;;;17.40;;
3333;SDS011;1679;50.392;8.008;2024-03-08T01:54:15;31.97;;;16.90;;
3333;SDS011;1679;50.392;8.008;2024-03-08T01:56:43;28.83;;;16.80;;
3333;SDS011;1679;50.392;8.008;2024-03-08T01:59:09;30.07;;;17.40;;
3333;SDS011;1679;50.392;8.008;2024-03-08T02:01:36;27.10;;;15.97;;
3333;SDS011;1679;50.392;8.008;2024-03-08T02:04:03;30.03;;;16.90;;
3333;SDS011;1679;50.392;8.008;2024-03-08T02:06:32;30.10;;;16.83;;
3333;SDS011;1679;50.392;8.008;2024-03-08T02:08:57;28.13;;;16.60;;
3333;SDS011;1679;50.392;8.008;2024-03-08T02:11:23;24.30;;;15.40;;
3333;SDS011;1679;50.392;8.008;2024-03-08T02:13:49;28.03;;;16.47;;
3333;SDS011;1679;50.392;8.008;2024-03-08T02:16:20;23.30;;;15.00;;
3333;SDS011;1679;50.392;8.008;2024-03-08T02:18:46;26.23;;;15.03;;
3333;SDS011;1679;50.392;8.008;2024-03-08T02:21:12;29.20;;;16.53;;
3333;SDS011;1679;50.392;8.008;2024-03-08T02:23:38;25.77;;;16.10;;
3333;SDS011;1679;50.392;8.008;2024-03-08T02:26:05;28.20;;;15.87;;
3333;SDS011;1679;50.392;8.008;2024-03-08T02:28:32;27.50;;;16.50;;
3333;SDS011;1679;50.392;8.008;2024-03-08T02:30:58;28.30;;;15.80;;
3333;SDS011;1679;50.392;8.008;2024-03-08T02:33:26;26.23;;;15.63;;
3333;SDS011;1679;50.392;8.008;2024-03-08T02:35:55;24.43;;;15.07;;
3333;SDS011;1679;50.392;8.008;2024-03-08T02:38:21;30.03;;;16.47;;
3333;SDS011;1679;50.392;8.008;2024-03-08T02:40:48;30.70;;;15.87;;
3333;SDS011;1679;50.392;8.008;2024-03-08T02:43:15;27.87;;;15.80;;
3333;SDS011;1679;50.392;8.008;2024-03-08T02:45:45;30.33;;;17.70;;
3333;SDS011;1679;50.392;8.008;2024-03-08T02:48:11;29.40;;;16.60;;
3333;SDS011;1679;50.392;8.008;2024-03-08T02:50:37;32.70;;;16.97;;
3333;SDS011;1679;50.392;8.008;2024-03-08T02:53:05;31.50;;;16.83;;
3333;SDS011;1679;50.392;8.008;2024-03-08T02:55:31;29.60;;;17.47;;
3333;SDS011;1679;50.392;8.008;2024-03-08T02:58:00;37.90;;;16.80;;
3333;SDS011;1679;50.392;8.008;2024-03-08T03:00:28;28.80;;;17.43;;
3333;SDS011;1679;50.392;8.008;2024-03-08T03:02:56;31.73;;;17.50;;
3333;SDS011;1679;50.392;8.008;2024-03-08T03:05:22;36.10;;;16.87;;
3333;SDS011;1679;50.392;8.008;2024-03-08T03:07:49;35.23;;;18.57;;
3333;SDS011;1679;50.392;8.008;2024-03-08T03:10:17;32.83;;;17.60;;
3333;SDS011;1679;50.392;8.008;2024-03-08T03:12:44;31.93;;;17.60;;
3333;SDS011;1679;50.392;8.008;2024-03-08T03:15:11;30.67;;;17.13;;
3333;SDS011;1679;50.392;8.008;2024-03-08T03:17:37;32.20;;;16.60;;
3333;SDS011;1679;50.392;8.008;2024-03-08T03:20:04;35.17;;;17.80;;
3333;SDS011;1679;50.392;8.008;2024-03-08T03:22:37;31.80;;;18.83;;
3333;SDS011;1679;50.392;8.008;2024-03-08T03:25:03;30.13;;;17.27;;
3333;SDS011;1679;50.392;8.008;2024-03-08T03:27:29;32.27;;;18.40;;
3333;SDS011;1679;50.392;8.008;2024-03-08T03:29:56;35.30;;;17.83;;
3333;SDS011;1679;50.392;8.008;2024-03-08T03:32:22;34.60;;;17.00;;
3333;SDS011;1679;50.392;8.008;2024-03-08T03:34:48;32.77;;;17.20;;
3333;SDS011;1679;50.392;8.008;2024-03-08T03:37:17;27.80;;;17.50;;
3333;SDS011;1679;50.392;8.008;2024-03-08T03:39:46;32.50;;;18.40;;
3333;SDS011;1679;50.392;8.008;2024-03-08T03:42:18;33.70;;;19.00;;
3333;SDS011;1679;50.392;8.008;2024-03-08T03:44:47;37.50;;;18.90;;
3333;SDS011;1679;50.392;8.008;2024-03-08T03:47:13;30.80;;;18.70;;
3333;SDS011;1679;50.392;8.008;2024-03-08T03:49:43;32.67;;;16.63;;
3333;SDS011;1679;50.392;8.008;2024-03-08T03:52:10;29.03;;;16.43;;
3333;SDS011;1679;50.392;8.008;2024-03-08T03:54:35;29.60;;;16.83;;
3333;SDS011;1679;50.392;8.008;2024-03-08T03:57:01;37.43;;;17.90;;
3333;SDS011;1679;50.392;8.008;2024-03-08T03:59:27;28.27;;;18.00;;
3333;SDS011;1679;50.392;8.008;2024-03-08T04:01:53;33.23;;;17.90;;
3333;SDS011;1679;50.392;8.008;2024-03-08T04:04:22;32.53;;;17.40;;
3333;SDS011;1679;50.392;8.008;2024-03-08T04:06:49;30.10;;;17.33;;
3333;SDS011;1679;50.392;8.008;2024-03-08T04:09:16;29.40;;;16.90;;
3333;SDS011;1679;50.392;8.008;2024-03-08T04:11:44;34.10;;;17.67;;
3333;SDS011;1679;50.392;8.008;2024-03-08T04:14:10;34.10;;;18.30;;
3333;SDS011;1679;50.392;8.008;2024-03-08T04:16:37;34.83;;;18.87;;
3333;SDS011;1679;50.392;8.008;2024-03-08T04:19:05;33.70;;;18.67;;
3333;SDS011;1679;50.392;8.008;2024-03-08T04:21:30;36.37;;;18.90;;
3333;SDS011;1679;50.392;8.008;2024-03-08T04:23:56;28.70;;;16.30;;
3333;SDS011;1679;50.392;8.008;2024-03-08T04:26:22;32.03;;;19.27;;
3333;SDS011;1679;50.392;8.008;2024-03-08T04:28:47;33.07;;;18.40;;
3333;SDS011;1679;50.392;8.008;2024-03-08T04:31:14;34.77;;;19.00;;
3333;SDS011;1679;50.392;8.008;2024-03-08T04:33:40;34.40;;;17.10;;
3333;SDS011;1679;50.392;8.008;2024-03-08T04:36:06;33.73;;;18.30;;
3333;SDS011;1679;50.392;8.008;2024-03-08T04:38:33;30.80;;;17.93;;
3333;SDS011;1679;50.392;8.008;2024-03-08T04:40:59;40.03;;;19.67;;
3333;SDS011;1679;50.392;8.008;2024-03-08T04:43:27;31.50;;;17.27;;
3333;SDS011;1679;50.392;8.008;2024-03-08T04:45:55;35.93;;;17.60;;
3333;SDS011;1679;50.392;8.008;2024-03-08T04:48:20;37.10;;;19.03;;
3333;SDS011;1679;50.392;8.008;2024-03-08T04:50:46;29.30;;;18.13;;
3333;SDS011;1679;50.392;8.008;2024-03-08T04:53:11;33.20;;;18.83;;
3333;SDS011;1679;50.392;8.008;2024-03-08T04:55:37;31.17;;;18.67;;
3333;SDS011;1679;50.392;8.008;2024-03-08T04:58:03;33.07;;;18.30;;
3333;SDS011;1679;50.392;8.008;2024-03-08T05:00:31;32.50;;;18.17;;
3333;SDS011;1679;50.392;8.008;2024-03-08T05:02:57;32.10;;;18.33;;
3333;SDS011;1679;50.392;8.008;2024-03-08T05:05:23;41.00;;;18.60;;
3333;SDS011;1679;50.392;8.008;2024-03-08T05:07:49;32.43;;;17.87;;
3333;SDS011;1679;50.392;8.008;2024-03-08T05:10:15;32.70;;;17.93;;
3333;SDS011;1679;50.392;8.008;2024-03-08T05:12:42;33.87;;;19.83;;
3333;SDS011;1679;50.392;8.008;2024-03-08T05:15:08;36.90;;;19.70;;
3333;SDS011;1679;50.392;8.008;2024-03-08T05:17:35;35.77;;;19.30;;
3333;SDS011;1679;50.392;8.008;2024-03-08T05:20:01;38.63;;;19.10;;
3333;SDS011;1679;50.392;8.008;2024-03-08T05:22:28;33.40;;;18.73;;
3333;SDS011;1679;50.392;8.008;2024-03-08T05:24:54;36.00;;;19.60;;
3333;SDS011;1679;50.392;8.008;2024-03-08T05:27:21;36.40;;;19.80;;
3333;SDS011;1679;50.392;8.008;2024-03-08T05:29:46;37.43;;;19.70;;
3333;SDS011;1679;50.392;8.008;2024-03-08T05:32:12;32.93;;;19.20;;
3333;SDS011;1679;50.392;8.008;2024-03-08T05:34:39;38.70;;;21.33;;
3333;SDS011;1679;50.392;8.008;2024-03-08T05:37:04;36.83;;;20.90;;
3333;SDS011;1679;50.392;8.008;2024-03-08T05:39:32;35.50;;;19.03;;
3333;SDS011;1679;50.392;8.008;2024-03-08T05:41:58;41.40;;;19.57;;
3333;SDS011;1679;50.392;8.008;2024-03-08T05:44:24;37.10;;;19.90;;
3333;SDS011;1679;50.392;8.008;2024-03-08T05:46:53;38.27;;;20.90;;
3333;SDS011;1679;50.392;8.008;2024-03-08T05:49:19;36.20;;;18.80;;
3333;SDS011;1679;50.392;8.008;2024-03-08T05:51:46;36.90;;;21.03;;
3333;SDS011;1679;50.392;8.008;2024-03-08T05:54:12;36.53;;;19.93;;
3333;SDS011;1679;50.392;8.008;2024-03-08T05:56:38;37.40;;;19.83;;
3333;SDS011;1679;50.392;8.008;2024-03-08T05:59:08;36.93;;;19.10;;
3333;SDS011;1679;50.392;8.008;2024-03-08T06:01:34;37.60;;;18.77;;
3333;SDS011;1679;50.392;8.008;2024-03-08T06:04:01;33.43;;;18.20;;
3333;SDS011;1679;50.392;8.008;2024-03-08T06:06:27;37.03;;;19.87;;
3333;SDS011;1679;50.392;8.008;2024-03-08T06:08:53;35.63;;;19.50;;
3333;SDS011;1679;50.392;8.008;2024-03-08T06:11:21;33.23;;;18.80;;
3333;SDS011;1679;50.392;8.008;2024-03-08T06:13:47;39.50;;;21.33;;
3333;SDS011;1679;50.392;8.008;2024-03-08T06:16:13;41.80;;;21.40;;
3333;SDS011;1679;50.392;8.008;2024-03-08T06:18:39;37.50;;;18.63;;
3333;SDS011;1679;50.392;8.008;2024-03-08T06:21:04;40.70;;;20.47;;
3333;SDS011;1679;50.392;8.008;2024-03-08T06:23:34;48.17;;;20.73;;
3333;SDS011;1679;50.392;8.008;2024-03-08T06:26:03;35.70;;;19.93;;
3333;SDS011;1679;50.392;8.008;2024-03-08T06:28:29;37.97;;;19.47;;
3333;SDS011;1679;50.392;8.008;2024-03-08T06:30:55;38.77;;;20.33;;
3333;SDS011;1679;50.392;8.008;2024-03-08T06:33:25;38.77;;;19.20;;
3333;SDS011;1679;50.392;8.008;2024-03-08T06:35:53;32.40;;;18.57;;
3333;SDS011;1679;50.392;8.008;2024-03-08T06:38:22;39.83;;;20.87;;
3333;SDS011;1679;50.392;8.008;2024-03-08T06:40:50;36.53;;;19.93;;
3333;SDS011;1679;50.392;8.008;2024-03-08T06:43:17;37.67;;;19.63;;
3333;SDS011;1679;50.392;8.008;2024-03-08T06:45:44;39.73;;;19.50;;
3333;SDS011;1679;50.392;8.008;2024-03-08T06:48:17;42.07;;;20.07;;
3333;SDS011;1679;50.392;8.008;2024-03-08T06:50:43;40.20;;;19.80;;
3333;SDS011;1679;50.392;8.008;2024-03-08T06:53:10;43.60;;;21.67;;
3333;SDS011;1679;50.392;8.008;2024-03-08T06:55:36;36.03;;;18.67;;
3333;SDS011;1679;50.392;8.008;2024-03-08T06:58:02;38.00;;;20.53;;
3333;SDS011;1679;50.392;8.008;2024-03-08T07:00:27;37.27;;;19.70;;
3333;SDS011;1679;50.392;8.008;2024-03-08T07:02:55;37.77;;;19.93;;
3333;SDS011;1679;50.392;8.008;2024-03-08T07:05:27;45.90;;;21.40;;
3333;SDS011;1679;50.392;8.008;2024-03-08T07:07:53;39.70;;;20.03;;
3333;SDS011;1679;50.392;8.008;2024-03-08T07:10:23;36.30;;;19.93;;
3333;SDS011;1679;50.392;8.008;2024-03-08T07:12:50;38.57;;;19.33;;
3333;SDS011;1679;50.392;8.008;2024-03-08T07:15:16;34.40;;;19.47;;
3333;SDS011;1679;50.392;8.008;2024-03-08T07:17:44;37.50;;;19.97;;
3333;SDS011;1679;50.392;8.008;2024-03-08T07:20:10;33.47;;;19.37;;
3333;SDS011;1679;50.392;8.008;2024-03-08T07:22:39;35.63;;;20.13;;
3333;SDS011;1679;50.392;8.008;2024-03-08T07:25:07;41.87;;;19.63;;
3333;SDS011;1679;50.392;8.008;2024-03-08T07:27:52;38.57;;;19.37;;
3333;SDS011;1679;50.392;8.008;2024-03-08T07:30:19;38.07;;;18.60;;
3333;SDS011;1679;50.392;8.008;2024-03-08T07:33:07;35.13;;;19.80;;
3333;SDS011;1679;50.392;8.008;2024-03-08T07:35:33;36.30;;;20.20;;
3333;SDS011;1679;50.392;8.008;2024-03-08T07:38:02;35.00;;;17.83;;
3333;SDS011;1679;50.392;8.008;2024-03-08T07:40:37;36.77;;;20.40;;
3333;SDS011;1679;50.392;8.008;2024-03-08T07:43:09;36.30;;;21.03;;
3333;SDS011;1679;50.392;8.008;2024-03-08T07:45:36;37.23;;;19.60;;
3333;SDS011;1679;50.392;8.008;2024-03-08T07:48:04;35.87;;;20.20;;
3333;SDS011;1679;50.392;8.008;2024-03-08T07:50:37;33.63;;;19.30;;
3333;SDS011;1679;50.392;8.008;2024-03-08T07:53:04;33.60;;;19.90;;
3333;SDS011;1679;50.392;8.008;2024-03-08T07:55:31;33.77;;;17.67;;
3333;SDS011;1679;50.392;8.008;2024-03-08T07:57:57;32.03;;;18.67;;
3333;SDS011;1679;50.392;8.008;2024-03-08T08:00:23;34.73;;;19.40;;
3333;SDS011;1679;50.392;8.008;2024-03-08T08:02:49;35.90;;;18.30;;
3333;SDS011;1679;50.392;8.008;2024-03-08T08:05:15;32.47;;;19.07;;
3333;SDS011;1679;50.392;8.008;2024-03-08T08:07:46;31.47;;;17.57;;
3333;SDS011;1679;50.392;8.008;2024-03-08T08:10:12;29.57;;;16.80;;
3333;SDS011;1679;50.392;8.008;2024-03-08T08:12:48;28.67;;;17.30;;
3333;SDS011;1679;50.392;8.008;2024-03-08T08:15:14;30.33;;;17.30;;
3333;SDS011;1679;50.392;8.008;2024-03-08T08:17:40;31.13;;;17.60;;
3333;SDS011;1679;50.392;8.008;2024-03-08T08:20:10;30.33;;;17.47;;
3333;SDS011;1679;50.392;8.008;2024-03-08T08:22:40;26.80;;;16.93;;
3333;SDS011;1679;50.392;8.008;2024-03-08T08:25:08;27.40;;;18.80;;
3333;SDS011;1679;50.392;8.008;2024-03-08T08:27:34;28.20;;;17.57;;
3333;SDS011;1679;50.392;8.008;2024-03-08T08:30:01;27.10;;;17.27;;
3333;SDS011;1679;50.392;8.008;2024-03-08T08:32:27;28.90;;;17.30;;
3333;SDS011;1679;50.392;8.008;2024-03-08T08:34:53;27.73;;;17.03;;
3333;SDS011;1679;50.392;8.008;2024-03-08T08:37:18;25.00;;;16.40;;
3333;SDS011;1679;50.392;8.008;2024-03-08T08:39:44;26.37;;;16.00;;
3333;SDS011;1679;50.392;8.008;2024-03-08T08:42:10;24.80;;;15.73;;
3333;SDS011;1679;50.392;8.008;2024-03-08T08:44:37;26.97;;;16.93;;
3333;SDS011;1679;50.392;8.008;2024-03-08T08:47:04;23.57;;;16.13;;
3333;SDS011;1679;50.392;8.008;2024-03-08T08:49:32;26.50;;;17.07;;
3333;SDS011;1679;50.392;8.008;2024-03-08T08:51:58;27.27;;;16.60;;
3333;SDS011;1679;50.392;8.008;2024-03-08T08:54:23;27.17;;;16.20;;
3333;SDS011;1679;50.392;8.008;2024-03-08T08:56:50;26.23;;;16.20;;
3333;SDS011;1679;50.392;8.008;2024-03-08T08:59:16;28.50;;;16.57;;
3333;SDS011;1679;50.392;8.008;2024-03-08T09:01:44;22.00;;;15.30;;
3333;SDS011;1679;50.392;8.008;2024-03-08T09:04:14;27.77;;;16.20;;
3333;SDS011;1679;50.392;8.008;2024-03-08T09:06:39;25.07;;;15.40;;
3333;SDS011;1679;50.392;8.008;2024-03-08T09:09:06;26.87;;;15.73;;
3333;SDS011;1679;50.392;8.008;2024-03-08T09:11:36;25.53;;;15.70;;
3333;SDS011;1679;50.392;8.008;2024-03-08T09:14:06;26.07;;;15.23;;
3333;SDS011;1679;50.392;8.008;2024-03-08T09:16:32;22.80;;;14.87;;
3333;SDS011;1679;50.392;8.008;2024-03-08T09:18:58;23.57;;;15.40;;
3333;SDS011;1679;50.392;8.008;2024-03-08T09:21:23;22.20;;;15.57;;
3333;SDS011;1679;50.392;8.008;2024-03-08T09:23:49;21.13;;;15.20;;
3333;SDS011;1679;50.392;8.008;2024-03-08T09:26:15;23.10;;;15.20;;
3333;SDS011;1679;50.392;8.008;2024-03-08T09:28:41;25.20;;;15.93;;
3333;SDS011;1679;50.392;8.008;2024-03-08T09:31:07;22.07;;;14.40;;
3333;SDS011;1679;50.392;8.008;2024-03-08T09:33:33;24.43;;;14.67;;
3333;SDS011;1679;50.392;8.008;2024-03-08T09:35:58;22.60;;;14.90;;
3333;SDS011;1679;50.392;8.008;2024-03-08T09:38:24;22.00;;;14.77;;
3333;SDS011;1679;50.392;8.008;2024-03-08T09:40:51;17.27;;;13.80;;
3333;SDS011;1679;50.392;8.008;2024-03-08T09:43:18;18.87;;;13.47;;
3333;SDS011;1679;50.392;8.008;2024-03-08T09:45:45;22.30;;;15.50;;
3333;SDS011;1679;50.392;8.008;2024-03-08T09:48:15;24.67;;;14.97;;
3333;SDS011;1679;50.392;8.008;2024-03-08T09:50:44;24.60;;;15.13;;
3333;SDS011;1679;50.392;8.008;2024-03-08T09:53:11;22.27;;;15.93;;
3333;SDS011;1679;50.392;8.008;2024-03-08T09:55:37;24.30;;;14.23;;
3333;SDS011;1679;50.392;8.008;2024-03-08T09:58:07;22.23;;;14.90;;
3333;SDS011;1679;50.392;8.008;2024-03-08T10:00:52;18.90;;;14.00;;
3333;SDS011;1679;50.392;8.008;2024-03-08T10:03:19;21.03;;;14.57;;
3333;SDS011;1679;50.392;8.008;2024-03-08T10:05:45;19.70;;;13.53;;
3333;SDS011;1679;50.392;8.008;2024-03-08T10:08:11;21.87;;;14.97;;
3333;SDS011;1679;50.392;8.008;2024-03-08T10:10:38;19.77;;;12.87;;
3333;SDS011;1679;50.392;8.008;2024-03-08T10:13:07;19.73;;;13.40;;
3333;SDS011;1679;50.392;8.008;2024-03-08T10:15:34;23.10;;;13.60;;
3333;SDS011;1679;50.392;8.008;2024-03-08T10:18:00;17.80;;;13.23;;
3333;SDS011;1679;50.392;8.008;2024-03-08T10:20:30;19.23;;;12.30;;
3333;SDS011;1679;50.392;8.008;2024-03-08T10:22:59;18.87;;;13.43;;
3333;SDS011;1679;50.392;8.008;2024-03-08T10:25:26;22.93;;;14.77;;
3333;SDS011;1679;50.392;8.008;2024-03-08T10:27:52;20.63;;;12.43;;
3333;SDS011;1679;50.392;8.008;2024-03-08T10:30:18;21.30;;;13.37;;
3333;SDS011;1679;50.392;8.008;2024-03-08T10:32:46;17.00;;;12.67;;
3333;SDS011;1679;50.392;8.008;2024-03-08T10:35:12;21.10;;;13.50;;
3333;SDS011;1679;50.392;8.008;2024-03-08T10:37:43;19.47;;;13.50;;
3333;SDS011;1679;50.392;8.008;2024-03-08T10:40:16;17.77;;;12.40;;
3333;SDS011;1679;50.392;8.008;2024-03-08T10:42:52;17.40;;;12.30;;
3333;SDS011;1679;50.392;8.008;2024-03-08T10:45:23;18.90;;;13.27;;
3333;SDS011;1679;50.392;8.008;2024-03-08T10:48:10;19.50;;;13.50;;
3333;SDS011;1679;50.392;8.008;2024-03-08T10:50:57;17.90;;;12.80;;
3333;SDS011;1679;50.392;8.008;2024-03-08T10:53:29;17.30;;;12.33;;
3333;SDS011;1679;50.392;8.008;2024-03-08T10:55:58;14.60;;;11.00;;
3333;SDS011;1679;50.392;8.008;2024-03-08T10:58:24;14.87;;;11.40;;
3333;SDS011;1679;50.392;8.008;2024-03-08T11:00:54;16.20;;;11.77;;
3333;SDS011;1679;50.392;8.008;2024-03-08T11:06:05;16.30;;;11.33;;
3333;SDS011;1679;50.392;8.008;2024-03-08T11:08:32;13.60;;;9.90;;
3333;SDS011;1679;50.392;8.008;2024-03-08T11:11:00;15.63;;;11.87;;
3333;SDS011;1679;50.392;8.008;2024-03-08T11:16:11;18.93;;;12.17;;
3333;SDS011;1679;50.392;8.008;2024-03-08T11:21:35;16.77;;;11.17;;
3333;SDS011;1679;50.392;8.008;2024-03-08T11:24:13;15.03;;;11.50;;
3333;SDS011;1679;50.392;8.008;2024-03-08T11:26:41;17.40;;;12.07;;
3333;SDS011;1679;50.392;8.008;2024-03-08T11:34:41;16.40;;;12.03;;
3333;SDS011;1679;50.392;8.008;2024-03-08T11:37:11;24.43;;;11.63;;
3333;SDS011;1679;50.392;8.008;2024-03-08T11:39:47;12.43;;;10.30;;
3333;SDS011;1679;50.392;8.008;2024-03-08T11:42:14;14.30;;;10.90;;
3333;SDS011;1679;50.392;8.008;2024-03-08T11:44:42;14.60;;;10.50;;
3333;SDS011;1679;50.392;8.008;2024-03-08T11:47:11;15.73;;;11.00;;
3333;SDS011;1679;50.392;8.008;2024-03-08T11:49:40;15.00;;;11.60;;
3333;SDS011;1679;50.392;8.008;2024-03-08T11:52:15;16.07;;;11.20;;
3333;SDS011;1679;50.392;8.008;2024-03-08T11:54:42;12.03;;;10.03;;
3333;SDS011;1679;50.392;8.008;2024-03-08T11:57:12;16.00;;;11.30;;
3333;SDS011;1679;50.392;8.008;2024-03-08T11:59:38;18.73;;;12.20;;
3333;SDS011;1679;50.392;8.008;2024-03-08T12:02:04;17.43;;;11.90;;
3333;SDS011;1679;50.392;8.008;2024-03-08T12:04:31;17.13;;;12.27;;
3333;SDS011;1679;50.392;8.008;2024-03-08T12:07:00;16.73;;;11.27;;
3333;SDS011;1679;50.392;8.008;2024-03-08T12:09:28;16.07;;;10.63;;
3333;SDS011;1679;50.392;8.008;2024-03-08T12:11:53;15.27;;;11.23;;
3333;SDS011;1679;50.392;8.008;2024-03-08T12:14:19;16.87;;;11.50;;
3333;SDS011;1679;50.392;8.008;2024-03-08T12:16:45;18.20;;;12.40;;
3333;SDS011;1679;50.392;8.008;2024-03-08T12:19:13;17.03;;;11.67;;
3333;SDS011;1679;50.392;8.008;2024-03-08T12:21:41;16.60;;;11.33;;
3333;SDS011;1679;50.392;8.008;2024-03-08T12:24:14;15.50;;;11.20;;
3333;SDS011;1679;50.392;8.008;2024-03-08T12:26:46;14.73;;;10.73;;
3333;SDS011;1679;50.392;8.008;2024-03-08T12:31:46;13.70;;;9.90;;
3333;SDS011;1679;50.392;8.008;2024-03-08T12:34:17;15.30;;;11.40;;
3333;SDS011;1679;50.392;8.008;2024-03-08T12:36:45;14.77;;;10.93;;
3333;SDS011;1679;50.392;8.008;2024-03-08T12:39:13;14.80;;;10.40;;
3333;SDS011;1679;50.392;8.008;2024-03-08T12:41:42;15.90;;;10.90;;
3333;SDS011;1679;50.392;8.008;2024-03-08T12:44:09;15.80;;;11.00;;
3333;SDS011;1679;50.392;8.008;2024-03-08T12:46:36;13.97;;;10.47;;
3333;SDS011;1679;50.392;8.008;2024-03-08T12:49:09;13.50;;;10.00;;
3333;SDS011;1679;50.392;8.008;2024-03-08T12:51:37;14.13;;;10.13;;
3333;SDS011;1679;50.392;8.008;2024-03-08T12:54:04;16.07;;;11.37;;
3333;SDS011;1679;50.392;8.008;2024-03-08T12:56:32;16.90;;;11.53;;
3333;SDS011;1679;50.392;8.008;2024-03-08T12:58:59;13.83;;;10.17;;
3333;SDS011;1679;50.392;8.008;2024-03-08T13:01:25;16.47;;;11.20;;
3333;SDS011;1679;50.392;8.008;2024-03-08T13:03:57;19.80;;;11.00;;
3333;SDS011;1679;50.392;8.008;2024-03-08T13:06:24;14.77;;;10.10;;
3333;SDS011;1679;50.392;8.008;2024-03-08T13:08:50;15.27;;;10.50;;
3333;SDS011;1679;50.392;8.008;2024-03-08T13:11:17;12.67;;;9.77;;
3333;SDS011;1679;50.392;8.008;2024-03-08T13:13:44;14.70;;;10.80;;
3333;SDS011;1679;50.392;8.008;2024-03-08T13:16:10;14.50;;;9.83;;
3333;SDS011;1679;50.392;8.008;2024-03-08T13:18:37;15.03;;;10.90;;
3333;SDS011;1679;50.392;8.008;2024-03-08T13:21:06;14.37;;;9.90;;
3333;SDS011;1679;50.392;8.008;2024-03-08T13:23:40;14.93;;;10.17;;
3333;SDS011;1679;50.392;8.008;2024-03-08T13:26:10;18.57;;;11.70;;
3333;SDS011;1679;50.392;8.008;2024-03-08T13:28:43;13.13;;;10.27;;
3333;SDS011;1679;50.392;8.008;2024-03-08T13:31:13;13.13;;;10.30;;
3333;SDS011;1679;50.392;8.008;2024-03-08T13:33:40;13.53;;;10.30;;
3333;SDS011;1679;50.392;8.008;2024-03-08T13:36:07;15.23;;;11.30;;
3333;SDS011;1679;50.392;8.008;2024-03-08T13:38:43;13.47;;;10.10;;
3333;SDS011;1679;50.392;8.008;2024-03-08T13:41:12;13.87;;;10.80;;
3333;SDS011;1679;50.392;8.008;2024-03-08T13:43:42;21.13;;;14.40;;
3333;SDS011;1679;50.392;8.008;2024-03-08T13:46:11;23.97;;;12.77;;
3333;SDS011;1679;50.392;8.008;2024-03-08T13:48:37;16.60;;;12.17;;
3333;SDS011;1679;50.392;8.008;2024-03-08T13:51:04;17.10;;;11.57;;
3333;SDS011;1679;50.392;8.008;2024-03-08T13:53:31;31.40;;;24.17;;
3333;SDS011;1679;50.392;8.008;2024-03-08T13:55:58;25.07;;;17.07;;
3333;SDS011;1679;50.392;8.008;2024-03-08T13:58:25;25.53;;;17.00;;
3333;SDS011;1679;50.392;8.008;2024-03-08T14:00:51;16.00;;;11.67;;
3333;SDS011;1679;50.392;8.008;2024-03-08T14:03:16;15.93;;;12.30;;
3333;SDS011;1679;50.392;8.008;2024-03-08T14:05:43;17.23;;;10.57;;
3333;SDS011;1679;50.392;8.008;2024-03-08T14:08:10;15.43;;;11.10;;
3333;SDS011;1679;50.392;8.008;2024-03-08T14:10:37;15.57;;;10.63;;
3333;SDS011;1679;50.392;8.008;2024-03-08T14:13:04;15.03;;;10.83;;
3333;SDS011;1679;50.392;8.008;2024-03-08T14:15:31;15.47;;;11.23;;
3333;SDS011;1679;50.392;8.008;2024-03-08T14:17:58;16.73;;;10.37;;
3333;SDS011;1679;50.392;8.008;2024-03-08T14:20:24;13.53;;;10.33;;
3333;SDS011;1679;50.392;8.008;2024-03-08T14:22:53;14.00;;;10.70;;
3333;SDS011;1679;50.392;8.008;2024-03-08T14:25:22;13.00;;;10.43;;
3333;SDS011;1679;50.392;8.008;2024-03-08T14:27:52;15.23;;;9.60;;
3333;SDS011;1679;50.392;8.008;2024-03-08T14:30:19;16.60;;;10.87;;
3333;SDS011;1679;50.392;8.008;2024-03-08T14:33:02;12.57;;;9.97;;
3333;SDS011;1679;50.392;8.008;2024-03-08T14:35:34;15.77;;;10.80;;
3333;SDS011;1679;50.392;8.008;2024-03-08T14:38:01;16.37;;;11.10;;
3333;SDS011;1679;50.392;8.008;2024-03-08T14:40:27;14.83;;;10.50;;
3333;SDS011;1679;50.392;8.008;2024-03-08T14:42:55;14.97;;;9.73;;
3333;SDS011;1679;50.392;8.008;2024-03-08T14:45:21;16.70;;;11.07;;
3333;SDS011;1679;50.392;8.008;2024-03-08T14:47:49;17.47;;;11.30;;
3333;SDS011;1679;50.392;8.008;2024-03-08T14:50:18;15.60;;;11.10;;
3333;SDS011;1679;50.392;8.008;2024-03-08T14:52:46;16.67;;;10.80;;
3333;SDS011;1679;50.392;8.008;2024-03-08T14:55:13;18.33;;;11.80;;
3333;SDS011;1679;50.392;8.008;2024-03-08T14:57:40;15.97;;;11.97;;
3333;SDS011;1679;50.392;8.008;2024-03-08T15:00:06;15.90;;;11.47;;
3333;SDS011;1679;50.392;8.008;2024-03-08T15:02:40;16.60;;;12.07;;
3333;SDS011;1679;50.392;8.008;2024-03-08T15:05:07;17.83;;;12.53;;
3333;SDS011;1679;50.392;8.008;2024-03-08T15:07:39;17.90;;;11.87;;